Time;durP1;ratioP1;P1;durP2;ratioP2;P2;SDS_P1;SDS_P2;PMS_P1;PMS_P2;Temp;Humidity;BMP_temperature;BMP_pressure;BME280_temperature;BME280_humidity;BME280_pressure;Samples;Min_cycle;Max_cycle;Signal;HPM_P1;HPM_P2
2024/02/13 00:00:12;;;;;;;;;;;;;;;7.03;97.79;95344.38;7400367;19;1029;-63
2024/02/13 00:02:41;;;;;;;;;;;;;;;7.01;98.13;95345.38;7400327;19;1081;-73
2024/02/13 00:05:10;;;;;;;;;;;;;;;7.07;98.24;95351.13;7400678;19;997;-71
2024/02/13 00:07:39;;;;;;;;;;;;;;;7.10;97.17;95349.31;7400537;19;1056;-72
2024/02/13 00:10:10;;;;;;;;;;;;;;;7.08;96.67;95349.38;7398541;19;1852;-68
2024/02/13 00:12:38;;;;;;;;;;;;;;;7.09;95.93;95345.88;7399889;19;1127;-67
2024/02/13 00:15:14;;;;;;;;;;;;;;;7.03;95.69;95349.59;7399473;19;1104;-69
2024/02/13 00:17:44;;;;;;;;;;;;;;;6.98;96.02;95345.50;7400139;19;1059;-67
2024/02/13 00:20:14;;;;;;;;;;;;;;;6.93;95.93;95343.91;7400317;19;1095;-70
2024/02/13 00:22:42;;;;;;;;;;;;;;;6.94;96.35;95347.38;7399742;19;1080;-66
2024/02/13 00:25:12;;;;;;;;;;;;;;;6.95;96.81;95344.72;7399569;19;1860;-68
2024/02/13 00:27:41;;;;;;;;;;;;;;;6.97;96.50;95336.84;7399480;19;996;-68
2024/02/13 00:30:14;;;;;;;;;;;;;;;6.98;96.37;95338.53;7398106;19;1838;-66
2024/02/13 00:32:42;;;;;;;;;;;;;;;6.99;96.26;95340.22;7397373;19;1941;-65
2024/02/13 00:35:13;;;;;;;;;;;;;;;7.00;95.80;95339.31;7399480;19;1817;-65
2024/02/13 00:37:41;;;;;;;;;;;;;;;6.99;95.96;95341.97;7398526;19;1137;-70
2024/02/13 00:40:10;;;;;;;;;;;;;;;6.95;95.73;95341.25;7399404;19;1031;-72
2024/02/13 00:42:39;;;;;;;;;;;;;;;6.97;96.18;95342.03;7399020;19;1140;-69
2024/02/13 00:45:10;;;;;;;;;;;;;;;6.97;96.13;95342.03;7399273;19;962;-74
2024/02/13 00:47:42;;;;;;;;;;;;;;;7.00;96.33;95343.66;7399208;19;968;-69
2024/02/13 00:50:14;;;;;;;;;;;;;;;7.06;96.88;95343.41;7398006;19;1841;-65
2024/02/13 00:52:42;;;;;;;;;;;;;;;7.10;96.97;95331.94;7399058;19;1009;-69
2024/02/13 00:55:11;;;;;;;;;;;;;;;7.16;97.01;95343.84;7398490;19;1048;-71
2024/02/13 00:57:40;;;;;;;;;;;;;;;7.18;97.25;95335.06;7398738;19;1923;-72
2024/02/13 01:00:10;;;;;;;;;;;;;;;7.15;97.03;95335.19;7398637;19;1702;-66
2024/02/13 01:02:38;;;;;;;;;;;;;;;7.19;97.46;95331.56;7398319;19;1025;-69
2024/02/13 01:05:10;;;;;;;;;;;;;;;7.24;97.22;95331.34;7398170;19;1092;-66
2024/02/13 01:07:38;;;;;;;;;;;;;;;7.29;96.70;95334.56;7398049;19;1245;-65
2024/02/13 01:10:07;;;;;;;;;;;;;;;7.30;97.14;95332.84;7397547;19;1857;-67
2024/02/13 01:12:36;;;;;;;;;;;;;;;7.33;97.01;95337.91;7398335;19;1919;-70
2024/02/13 01:15:04;;;;;;;;;;;;;;;7.36;97.29;95339.53;7397930;19;1076;-67
2024/02/13 01:17:32;;;;;;;;;;;;;;;7.41;97.12;95340.16;7397903;19;1120;-71
2024/02/13 01:20:01;;;;;;;;;;;;;;;7.41;96.74;95335.78;7397972;19;2039;-68
2024/02/13 01:22:32;;;;;;;;;;;;;;;7.43;97.19;95341.78;7398498;19;1774;-71
2024/02/13 01:25:00;;;;;;;;;;;;;;;7.41;97.19;95335.78;7396432;19;1087;-66
2024/02/13 01:27:29;;;;;;;;;;;;;;;7.44;97.89;95338.25;7397894;19;1063;-70
2024/02/13 01:29:57;;;;;;;;;;;;;;;7.45;97.79;95337.38;7397185;19;1849;-69
2024/02/13 01:32:27;;;;;;;;;;;;;;;7.47;97.85;95342.50;7397851;19;1079;-72
2024/02/13 01:34:55;;;;;;;;;;;;;;;7.49;97.85;95345.03;7397350;19;1092;-69
2024/02/13 01:37:23;;;;;;;;;;;;;;;7.50;97.82;95344.97;7397282;19;1821;-66
2024/02/13 01:39:54;;;;;;;;;;;;;;;7.52;97.79;95344.88;7397296;19;1127;-72
2024/02/13 01:42:23;;;;;;;;;;;;;;;7.52;97.81;95342.28;7397250;19;1135;-71
2024/02/13 01:44:53;;;;;;;;;;;;;;;7.56;97.37;95341.25;7397193;19;1131;-68
2024/02/13 01:47:22;;;;;;;;;;;;;;;7.55;97.70;95348.19;7397654;19;1008;-69
2024/02/13 01:49:50;;;;;;;;;;;;;;;7.55;98.15;95342.13;7396797;19;1850;-72
2024/02/13 01:52:20;;;;;;;;;;;;;;;7.55;97.90;95342.13;7397124;19;914;-66
2024/02/13 01:54:48;;;;;;;;;;;;;;;7.57;98.19;95345.53;7397050;19;1797;-70
2024/02/13 01:57:20;;;;;;;;;;;;;;;7.55;98.22;95345.59;7397517;19;1646;-67
2024/02/13 01:59:49;;;;;;;;;;;;;;;7.55;97.96;95353.41;7396582;19;1273;-65
2024/02/13 02:02:18;;;;;;;;;;;;;;;7.55;97.41;95355.16;7396568;19;1040;-72
2024/02/13 02:04:48;;;;;;;;;;;;;;;7.57;97.54;95358.53;7396462;19;1107;-65
2024/02/13 02:07:17;;;;;;;;;;;;;;;7.54;97.53;95354.31;7396511;19;1009;-69
2024/02/13 02:09:46;;;;;;;;;;;;;;;7.54;97.65;95359.53;7396356;19;1858;-69
2024/02/13 02:12:14;;;;;;;;;;;;;;;7.56;97.77;95360.28;7396821;19;957;-70
2024/02/13 02:14:46;;;;;;;;;;;;;;;7.59;98.32;95349.75;7396315;19;1017;-65
2024/02/13 02:17:14;;;;;;;;;;;;;;;7.57;98.38;95359.41;7396652;19;1023;-69
2024/02/13 02:19:43;;;;;;;;;;;;;;;7.57;98.42;95353.34;7396391;19;1794;-72
2024/02/13 02:22:12;;;;;;;;;;;;;;;7.58;98.18;95363.69;7396541;19;1009;-64
2024/02/13 02:24:40;;;;;;;;;;;;;;;7.58;97.79;95361.06;7396446;19;969;-68
2024/02/13 02:27:12;;;;;;;;;;;;;;;7.58;97.23;95361.06;7396391;19;1027;-69
2024/02/13 02:29:40;;;;;;;;;;;;;;;7.57;97.10;95362.00;7395532;19;1845;-69
2024/02/13 02:32:09;;;;;;;;;;;;;;;7.55;97.11;95365.56;7396108;19;1900;-64
2024/02/13 02:34:39;;;;;;;;;;;;;;;7.56;96.49;95362.88;7395761;19;1851;-69
2024/02/13 02:37:08;;;;;;;;;;;;;;;7.55;96.22;95360.34;7395799;19;1009;-73
2024/02/13 02:39:36;;;;;;;;;;;;;;;7.52;96.00;95356.13;7400766;19;1957;-72
2024/02/13 02:42:05;;;;;;;;;;;;;;;7.51;96.10;95364.00;7403278;19;1783;-70
2024/02/13 02:44:36;;;;;;;;;;;;;;;7.48;96.04;95361.53;7403331;19;964;-71
2024/02/13 02:47:05;;;;;;;;;;;;;;;7.45;95.93;95363.38;7403299;19;956;-66
2024/02/13 02:49:33;;;;;;;;;;;;;;;7.40;96.34;95365.34;7402523;19;1838;-65
2024/02/13 02:52:02;;;;;;;;;;;;;;;7.41;97.16;95366.19;7403139;19;1055;-72
2024/02/13 02:57:11;;;;;;;;;;;;;;;7.44;97.12;95372.09;7399555;19;2014;-69
2024/02/13 02:59:44;;;;;;;;;;;;;;;7.40;97.36;95370.53;7402438;19;1017;-64
2024/02/13 03:02:14;;;;;;;;;;;;;;;7.41;97.19;95363.59;7402324;19;1029;-70
2024/02/13 03:04:43;;;;;;;;;;;;;;;7.39;97.42;95375.81;7402415;19;1083;-70
2024/02/13 03:07:12;;;;;;;;;;;;;;;7.39;97.31;95374.06;7402462;19;1893;-71
2024/02/13 03:09:40;;;;;;;;;;;;;;;7.37;97.64;95372.44;7402390;19;1833;-68
2024/02/13 03:12:09;;;;;;;;;;;;;;;7.37;97.55;95373.28;7402351;19;1814;-73
2024/02/13 03:14:38;;;;;;;;;;;;;;;7.38;97.59;95377.59;7401845;19;1033;-68
2024/02/13 03:17:11;;;;;;;;;;;;;;;7.35;97.98;95379.47;7402136;19;1842;-70
2024/02/13 03:19:40;;;;;;;;;;;;;;;7.32;98.15;95377.84;7401753;19;1037;-66
2024/02/13 03:22:09;;;;;;;;;;;;;;;7.29;98.18;95377.97;7402104;19;1008;-68
2024/02/13 03:24:37;;;;;;;;;;;;;;;7.27;98.96;95379.78;7401910;19;1786;-73
2024/02/13 03:27:06;;;;;;;;;;;;;;;7.24;99.82;95382.53;7401490;19;1009;-67
2024/02/13 03:29:35;;;;;;;;;;;;;;;7.26;100.00;95380.72;7401471;19;1131;-72
2024/02/13 03:32:03;;;;;;;;;;;;;;;7.27;100.00;95380.66;7399345;19;1842;-64
2024/02/13 03:34:34;;;;;;;;;;;;;;;7.26;100.00;95383.31;7401637;19;1808;-63
2024/02/13 03:37:03;;;;;;;;;;;;;;;7.26;99.47;95383.31;7401249;19;1135;-66
2024/02/13 03:39:31;;;;;;;;;;;;;;;7.18;99.62;95383.63;7399082;19;1130;-68
2024/02/13 03:42:00;;;;;;;;;;;;;;;7.14;99.39;95382.94;7401390;19;985;-72
2024/02/13 03:44:28;;;;;;;;;;;;;;;7.12;99.71;95389.94;7400873;19;1136;-68
2024/02/13 03:46:57;;;;;;;;;;;;;;;7.07;100.00;95389.28;7401214;19;1071;-68
2024/02/13 03:49:26;;;;;;;;;;;;;;;7.06;100.00;95387.59;7399725;19;1057;-73
2024/02/13 03:51:58;;;;;;;;;;;;;;;7.01;100.00;95392.16;7399180;19;1853;-74
2024/02/13 03:54:26;;;;;;;;;;;;;;;6.94;100.00;95389.81;7400576;19;1017;-69
2024/02/13 03:56:55;;;;;;;;;;;;;;;6.95;100.00;95390.66;7400820;19;1911;-68
2024/02/13 03:59:23;;;;;;;;;;;;;;;6.96;100.00;95394.97;7400867;19;992;-67
2024/02/13 04:01:52;;;;;;;;;;;;;;;6.94;100.00;95391.56;7400873;19;946;-70
2024/02/13 04:04:21;;;;;;;;;;;;;;;6.86;100.00;95391.06;7400210;19;1005;-70
2024/02/13 04:06:49;;;;;;;;;;;;;;;6.90;100.00;95392.59;7400972;19;1819;-73
2024/02/13 04:09:20;;;;;;;;;;;;;;;6.85;100.00;95389.34;7400432;19;1914;-68
2024/02/13 04:11:50;;;;;;;;;;;;;;;6.88;100.00;95394.41;7398794;19;1859;-68
2024/02/13 04:14:18;;;;;;;;;;;;;;;6.83;100.00;95392.00;7399901;19;1021;-72
2024/02/13 04:16:47;;;;;;;;;;;;;;;6.88;99.50;95397.00;7400101;19;1851;-65
2024/02/13 04:19:15;;;;;;;;;;;;;;;6.88;98.71;95392.69;7400085;19;1883;-69
2024/02/13 04:21:44;;;;;;;;;;;;;;;6.92;97.67;95393.38;7400103;19;1031;-71
2024/02/13 04:24:13;;;;;;;;;;;;;;;6.91;96.94;95395.16;7399527;19;1080;-67
2024/02/13 04:26:44;;;;;;;;;;;;;;;6.91;96.71;95394.28;7399977;19;1075;-67
2024/02/13 04:29:12;;;;;;;;;;;;;;;6.94;95.90;95395.03;7399322;19;1131;-69
2024/02/13 04:31:42;;;;;;;;;;;;;;;7.01;95.06;95386.97;7398268;19;1881;-67
2024/02/13 04:34:11;;;;;;;;;;;;;;;7.02;94.54;95393.84;7399255;19;1197;-70
2024/02/13 04:36:40;;;;;;;;;;;;;;;7.04;93.09;95397.22;7399955;19;1618;-71
2024/02/13 04:39:08;;;;;;;;;;;;;;;7.11;93.49;95403.00;7398254;19;1816;-71
2024/02/13 04:41:39;;;;;;;;;;;;;;;7.08;93.80;95401.41;7399030;19;1160;-68
2024/02/13 04:44:10;;;;;;;;;;;;;;;7.06;93.56;95404.06;7399296;19;950;-67
2024/02/13 04:46:39;;;;;;;;;;;;;;;7.05;94.31;95410.16;7398963;19;1029;-71
2024/02/13 04:49:07;;;;;;;;;;;;;;;7.05;93.88;95397.16;7398712;19;1096;-71
2024/02/13 04:51:35;;;;;;;;;;;;;;;7.03;93.69;95401.59;7398058;19;1848;-69
2024/02/13 04:54:05;;;;;;;;;;;;;;;7.01;94.15;95402.56;7398797;19;1782;-68
2024/02/13 04:56:33;;;;;;;;;;;;;;;6.94;94.11;95412.38;7398556;19;941;-70
2024/02/13 04:59:02;;;;;;;;;;;;;;;6.95;94.33;95411.44;7398743;19;1794;-68
2024/02/13 05:01:39;;;;;;;;;;;;;;;6.98;93.97;95407.91;7396275;19;1103;-70
2024/02/13 05:09:29;;;;;;;;;;;;;;;6.94;94.10;95418.44;7398574;19;845;-71
2024/02/13 05:11:57;;;;;;;;;;;;;;;6.93;93.66;95419.31;7396745;19;1846;-68
2024/02/13 05:14:27;;;;;;;;;;;;;;;6.95;93.71;95420.09;7398429;19;1024;-68
2024/02/13 05:17:01;;;;;;;;;;;;;;;6.94;93.48;95418.44;7398312;19;1469;-65
2024/02/13 05:19:29;;;;;;;;;;;;;;;6.98;93.31;95424.31;7397729;19;1108;-66
2024/02/13 05:21:58;;;;;;;;;;;;;;;6.99;92.79;95431.25;7398115;19;1040;-70
2024/02/13 05:24:27;;;;;;;;;;;;;;;6.97;92.38;95433.03;7398057;19;1116;-66
2024/02/13 05:26:55;;;;;;;;;;;;;;;6.95;92.04;95432.25;7397887;19;1904;-67
2024/02/13 05:29:24;;;;;;;;;;;;;;;6.88;91.84;95436.88;7397883;19;1021;-69
2024/02/13 05:31:53;;;;;;;;;;;;;;;6.88;91.41;95442.06;7396344;19;1861;-66
2024/02/13 05:34:24;;;;;;;;;;;;;;;6.86;90.88;95450.84;7397580;19;1940;-69
2024/02/13 05:36:52;;;;;;;;;;;;;;;6.78;90.15;95446.81;7397290;19;1029;-71
2024/02/13 05:39:21;;;;;;;;;;;;;;;6.73;90.31;95453.94;7395421;19;1147;-70
2024/02/13 05:41:50;;;;;;;;;;;;;;;6.65;89.91;95459.44;7397114;19;1021;-72
2024/02/13 05:44:19;;;;;;;;;;;;;;;6.69;89.60;95458.38;7397099;19;1087;-71
2024/02/13 05:46:48;;;;;;;;;;;;;;;6.67;89.00;95459.38;7397467;19;882;-70
2024/02/13 05:49:16;;;;;;;;;;;;;;;6.64;89.10;95467.28;7397356;19;1812;-65
2024/02/13 05:51:48;;;;;;;;;;;;;;;6.59;88.83;95470.06;7395922;19;1842;-71
2024/02/13 05:54:16;;;;;;;;;;;;;;;6.51;88.40;95466.94;7396900;19;1180;-68
2024/02/13 05:56:45;;;;;;;;;;;;;;;6.49;88.33;95474.78;7397216;19;1002;-70
2024/02/13 05:59:14;;;;;;;;;;;;;;;6.49;88.14;95482.56;7396951;19;1775;-67
2024/02/13 06:01:42;;;;;;;;;;;;;;;6.54;88.31;95479.81;7397075;19;1043;-72
2024/02/13 06:04:11;;;;;;;;;;;;;;;6.57;88.29;95480.50;7396960;19;1032;-66
2024/02/13 06:06:42;;;;;;;;;;;;;;;6.67;88.17;95482.75;7396953;19;957;-68
2024/02/13 06:09:13;;;;;;;;;;;;;;;6.75;88.43;95483.31;7396786;19;993;-65
2024/02/13 06:11:42;;;;;;;;;;;;;;;6.90;88.63;95483.59;7397515;19;1853;-70
2024/02/13 06:14:10;;;;;;;;;;;;;;;7.16;88.65;95489.47;7403958;19;1115;-69
2024/02/13 06:16:38;;;;;;;;;;;;;;;7.39;87.69;95482.47;7404243;19;970;-71
2024/02/13 06:19:07;;;;;;;;;;;;;;;8.40;85.92;95495.47;7404075;19;1900;-70
2024/02/13 06:21:35;;;;;;;;;;;;;;;9.39;77.95;95489.09;7404070;19;1039;-68
2024/02/13 06:24:04;;;;;;;;;;;;;;;9.93;75.29;95498.59;7403812;19;1781;-67
2024/02/13 06:26:37;;;;;;;;;;;;;;;10.23;73.79;95497.88;7403694;19;1903;-71
2024/02/13 06:29:06;;;;;;;;;;;;;;;11.28;69.07;95508.75;7404164;19;1396;-70
2024/02/13 06:31:35;;;;;;;;;;;;;;;12.09;65.11;95511.94;7402685;19;1853;-68
2024/02/13 06:34:03;;;;;;;;;;;;;;;13.30;62.08;95528.97;7403493;19;933;-65
2024/02/13 06:36:32;;;;;;;;;;;;;;;14.25;57.83;95525.38;7403133;19;1017;-64
2024/02/13 06:39:00;;;;;;;;;;;;;;;14.99;54.79;95529.03;7400741;19;1116;-68
2024/02/13 06:41:29;;;;;;;;;;;;;;;15.66;52.96;95529.47;7403020;19;1076;-69
2024/02/13 06:44:03;;;;;;;;;;;;;;;16.51;50.35;95531.94;7403369;19;1017;-67
2024/02/13 06:46:31;;;;;;;;;;;;;;;17.34;48.55;95533.38;7402901;19;1121;-69
2024/02/13 06:49:00;;;;;;;;;;;;;;;17.38;47.21;95531.34;7403112;19;1995;-76
2024/02/13 06:51:29;;;;;;;;;;;;;;;17.11;47.00;95532.59;7402345;19;1851;-68
2024/02/13 06:54:01;;;;;;;;;;;;;;;16.31;48.39;95528.19;7402556;19;1072;-68
2024/02/13 06:56:30;;;;;;;;;;;;;;;16.75;45.90;95525.69;7402497;19;1224;-72
2024/02/13 06:59:01;;;;;;;;;;;;;;;18.05;43.20;95525.84;7402400;19;1037;-70
2024/02/13 07:01:29;;;;;;;;;;;;;;;18.76;41.15;95507.53;7402391;19;1128;-68
2024/02/13 07:03:58;;;;;;;;;;;;;;;18.90;39.88;95509.81;7402363;19;1139;-69
2024/02/13 07:06:26;;;;;;;;;;;;;;;18.72;40.48;95512.25;7402316;19;1053;-72
2024/02/13 07:08:55;;;;;;;;;;;;;;;17.80;40.70;95514.69;7402577;19;1923;-73
2024/02/13 07:11:23;;;;;;;;;;;;;;;16.86;43.13;95510.78;7401994;19;1853;-70
2024/02/13 07:13:52;;;;;;;;;;;;;;;15.96;44.19;95506.22;7402164;19;966;-66
2024/02/13 07:16:23;;;;;;;;;;;;;;;15.21;45.48;95506.44;7401942;19;1195;-68
2024/02/13 07:18:51;;;;;;;;;;;;;;;15.06;47.23;95510.16;7401867;19;1061;-70
2024/02/13 07:21:20;;;;;;;;;;;;;;;15.33;46.60;95503.84;7402229;19;1039;-69
2024/02/13 07:23:50;;;;;;;;;;;;;;;16.25;45.10;95504.91;7400178;19;1822;-68
2024/02/13 07:26:21;;;;;;;;;;;;;;;16.45;43.94;95502.53;7401598;19;1100;-71
2024/02/13 07:28:49;;;;;;;;;;;;;;;16.11;44.10;95509.50;7401975;19;1044;-67
2024/02/13 07:31:19;;;;;;;;;;;;;;;15.40;45.83;95508.53;7401402;19;1896;-71
2024/02/13 07:33:51;;;;;;;;;;;;;;;14.76;47.70;95512.25;7401847;19;973;-69
2024/02/13 07:36:19;;;;;;;;;;;;;;;14.10;48.88;95513.28;7401353;19;1151;-74
2024/02/13 07:38:48;;;;;;;;;;;;;;;13.74;50.39;95515.66;7399622;19;1061;-70
2024/02/13 07:41:16;;;;;;;;;;;;;;;13.24;50.75;95519.72;7401680;19;1142;-68
2024/02/13 07:43:44;;;;;;;;;;;;;;;12.94;51.94;95517.31;7401024;19;1200;-68
2024/02/13 07:46:14;;;;;;;;;;;;;;;12.66;53.06;95519.88;7401413;19;1043;-69
2024/02/13 07:48:42;;;;;;;;;;;;;;;12.29;53.07;95512.53;7400841;19;1117;-68
2024/02/13 07:51:15;;;;;;;;;;;;;;;11.97;53.50;95516.13;7400742;19;1115;-73
2024/02/13 07:53:44;;;;;;;;;;;;;;;11.70;54.71;95515.97;7400585;19;1100;-71
2024/02/13 07:56:12;;;;;;;;;;;;;;;11.55;55.20;95518.56;7401359;19;1763;-69
2024/02/13 07:58:41;;;;;;;;;;;;;;;11.58;55.61;95513.16;7400771;19;1312;-66
2024/02/13 08:01:10;;;;;;;;;;;;;;;11.65;54.86;95515.41;7400809;19;1795;-69
2024/02/13 08:03:40;;;;;;;;;;;;;;;11.36;55.27;95529.25;7400763;19;1068;-70
2024/02/13 08:06:09;;;;;;;;;;;;;;;11.08;53.77;95529.06;7400252;19;1127;-68
2024/02/13 08:08:40;;;;;;;;;;;;;;;10.93;54.65;95527.31;7400671;19;1030;-65
2024/02/13 08:11:10;;;;;;;;;;;;;;;10.82;54.72;95526.13;7400158;19;1201;-65
2024/02/13 08:13:38;;;;;;;;;;;;;;;10.76;55.29;95528.22;7397859;19;1834;-68
2024/02/13 08:16:07;;;;;;;;;;;;;;;10.92;55.26;95533.44;7400376;19;1083;-67
2024/02/13 08:18:36;;;;;;;;;;;;;;;11.08;54.87;95533.47;7400298;19;1810;-70
2024/02/13 08:21:05;;;;;;;;;;;;;;;11.49;54.57;95532.00;7400389;19;1032;-69
2024/02/13 08:23:34;;;;;;;;;;;;;;;12.24;50.13;95525.06;7399817;19;1116;-73
2024/02/13 08:26:07;;;;;;;;;;;;;;;12.59;50.33;95531.69;7399741;19;1052;-66
2024/02/13 08:28:37;;;;;;;;;;;;;;;12.63;49.60;95528.78;7399597;19;1103;-66
2024/02/13 08:31:06;;;;;;;;;;;;;;;12.59;49.20;95535.16;7399540;19;1056;-72
2024/02/13 08:33:35;;;;;;;;;;;;;;;12.54;49.77;95533.75;7398096;19;1865;-68
2024/02/13 08:36:03;;;;;;;;;;;;;;;12.34;52.38;95534.03;7399512;19;1989;-66
2024/02/13 08:38:32;;;;;;;;;;;;;;;12.09;50.67;95540.78;7398022;19;1421;-66
2024/02/13 08:41:00;;;;;;;;;;;;;;;11.86;51.48;95542.13;7399056;19;923;-70
2024/02/13 08:43:32;;;;;;;;;;;;;;;11.67;52.06;95537.97;7398983;19;1130;-69
2024/02/13 08:46:00;;;;;;;;;;;;;;;11.42;52.43;95539.41;7398932;19;1092;-71
2024/02/13 08:48:29;;;;;;;;;;;;;;;11.45;54.13;95538.38;7398835;19;1045;-66
2024/02/13 08:50:57;;;;;;;;;;;;;;;11.25;52.78;95540.34;7399118;19;1922;-72
2024/02/13 08:53:26;;;;;;;;;;;;;;;11.19;53.61;95535.44;7397419;19;1984;-66
2024/02/13 08:55:54;;;;;;;;;;;;;;;11.20;54.22;95543.22;7398650;19;1274;-67
2024/02/13 08:58:23;;;;;;;;;;;;;;;11.14;53.19;95540.13;7398545;19;1061;-69
2024/02/13 09:00:54;;;;;;;;;;;;;;;11.15;53.67;95542.66;7398433;19;1065;-73
2024/02/13 09:03:22;;;;;;;;;;;;;;;11.13;53.94;95544.50;7398361;19;1092;-64
2024/02/13 09:05:51;;;;;;;;;;;;;;;11.02;53.86;95545.13;7398316;19;1112;-67
2024/02/13 09:08:20;;;;;;;;;;;;;;;11.04;53.92;95553.72;7398250;19;1397;-76
2024/02/13 09:10:48;;;;;;;;;;;;;;;11.07;54.52;95552.69;7398193;19;1082;-65
2024/02/13 09:13:17;;;;;;;;;;;;;;;11.09;55.39;95553.47;7397248;19;1865;-69
2024/02/13 09:15:46;;;;;;;;;;;;;;;11.09;54.80;95546.47;7398468;19;968;-71
2024/02/13 09:18:17;;;;;;;;;;;;;;;11.05;55.37;95563.25;7398235;19;1009;-69
2024/02/13 09:20:46;;;;;;;;;;;;;;;11.06;54.34;95559.72;7397876;19;1104;-74
2024/02/13 09:23:18;;;;;;;;;;;;;;;10.92;54.41;95555.22;7397990;19;1808;-70
2024/02/13 09:25:49;;;;;;;;;;;;;;;10.85;54.61;95548.66;7398205;19;1036;-64
2024/02/13 09:28:17;;;;;;;;;;;;;;;10.91;54.99;95556.16;7398079;19;981;-72
2024/02/13 09:30:47;;;;;;;;;;;;;;;10.97;54.87;95555.84;7397972;19;987;-69
2024/02/13 09:33:20;;;;;;;;;;;;;;;11.04;55.04;95555.47;7396822;19;1845;-74
2024/02/13 09:35:50;;;;;;;;;;;;;;;11.02;55.44;95559.97;7397463;19;1023;-69
2024/02/13 09:38:18;;;;;;;;;;;;;;;11.00;55.41;95560.03;7396059;19;1120;-67
2024/02/13 09:40:48;;;;;;;;;;;;;;;10.98;55.99;95562.75;7397225;19;1131;-68
2024/02/13 09:43:17;;;;;;;;;;;;;;;10.96;55.73;95558.53;7397042;19;1025;-70
2024/02/13 09:45:46;;;;;;;;;;;;;;;10.97;55.28;95557.59;7395358;19;2086;-69
2024/02/13 09:48:23;;;;;;;;;;;;;;;10.98;56.23;95557.50;7396602;19;930;-71
2024/02/13 09:50:52;;;;;;;;;;;;;;;10.98;56.54;95561.91;7396949;19;1103;-71
2024/02/13 09:53:24;;;;;;;;;;;;;;;10.98;56.78;95561.91;7396032;19;1841;-66
2024/02/13 09:56:01;;;;;;;;;;;;;;;10.95;57.06;95555.06;7397294;19;1011;-69
2024/02/13 09:58:30;;;;;;;;;;;;;;;11.01;56.41;95556.50;7396017;19;1294;-66
2024/02/13 10:01:00;;;;;;;;;;;;;;;10.99;57.84;95561.00;7396638;19;1119;-72
2024/02/13 10:03:31;;;;;;;;;;;;;;;10.90;61.71;95556.25;7396547;19;1175;-66
2024/02/13 10:06:00;;;;;;;;;;;;;;;10.84;63.31;95562.66;7396488;19;1037;-66
2024/02/13 10:08:30;;;;;;;;;;;;;;;10.86;65.72;95566.03;7396340;19;1073;-69
2024/02/13 10:11:03;;;;;;;;;;;;;;;10.86;67.31;95564.28;7396795;19;1024;-65
2024/02/13 10:13:38;;;;;;;;;;;;;;;10.90;67.60;95553.63;7395754;19;1844;-67
2024/02/13 10:16:07;;;;;;;;;;;;;;;10.82;68.35;95551.44;7396200;19;1104;-70
2024/02/13 10:18:39;;;;;;;;;;;;;;;10.83;69.16;95550.50;7396046;19;1065;-68
2024/02/13 10:21:11;;;;;;;;;;;;;;;10.86;70.35;95551.19;7396119;19;906;-67
2024/02/13 10:23:39;;;;;;;;;;;;;;;10.88;73.57;95558.94;7396473;19;1056;-69
2024/02/13 10:26:10;;;;;;;;;;;;;;;10.89;74.77;95560.63;7396407;19;1814;-71
2024/02/13 10:28:43;;;;;;;;;;;;;;;10.84;75.67;95553.03;7395891;19;1080;-69
2024/02/13 10:31:11;;;;;;;;;;;;;;;10.76;73.52;95554.38;7395796;19;1053;-67
2024/02/13 10:33:46;;;;;;;;;;;;;;;10.57;74.13;95552.78;7394769;19;1857;-66
2024/02/13 10:36:14;;;;;;;;;;;;;;;10.43;75.12;95553.47;7395729;19;1096;-71
2024/02/13 10:38:45;;;;;;;;;;;;;;;10.30;76.98;95550.69;7394064;19;1361;-63
2024/02/13 10:41:19;;;;;;;;;;;;;;;10.26;76.85;95547.38;7396055;19;1021;-70
2024/02/13 10:43:50;;;;;;;;;;;;;;;10.27;77.67;95551.69;7395410;19;992;-71
2024/02/13 10:46:19;;;;;;;;;;;;;;;10.29;78.57;95546.38;7395957;19;961;-70
2024/02/13 10:48:53;;;;;;;;;;;;;;;10.28;78.05;95548.13;7395753;19;2095;-65
2024/02/13 10:51:22;;;;;;;;;;;;;;;10.30;78.63;95551.50;7395275;19;1120;-73
2024/02/13 10:53:51;;;;;;;;;;;;;;;10.33;78.64;95553.13;7394127;19;1853;-72
2024/02/13 10:56:20;;;;;;;;;;;;;;;10.34;79.81;95557.41;7395680;19;1017;-70
2024/02/13 10:58:49;;;;;;;;;;;;;;;10.34;78.75;95560.03;7397844;19;1074;-74
2024/02/13 11:01:19;;;;;;;;;;;;;;;10.33;79.00;95561.78;7402761;19;1849;-74
2024/02/13 11:03:50;;;;;;;;;;;;;;;10.32;80.53;95567.09;7402828;19;1027;-72
2024/02/13 11:06:19;;;;;;;;;;;;;;;10.28;80.64;95561.22;7402874;19;1005;-69
2024/02/13 11:08:48;;;;;;;;;;;;;;;10.19;80.23;95553.84;7402241;19;1020;-69
2024/02/13 11:11:17;;;;;;;;;;;;;;;9.93;77.86;95551.66;7402373;19;1912;-70
2024/02/13 11:13:45;;;;;;;;;;;;;;;9.78;78.66;95555.06;7400428;19;1841;-70
2024/02/13 11:16:14;;;;;;;;;;;;;;;9.73;79.50;95550.88;7401922;19;1073;-70
2024/02/13 11:18:55;;;;;;;;;;;;;;;9.69;79.40;95551.97;7402334;19;973;-74
2024/02/13 11:21:24;;;;;;;;;;;;;;;9.68;80.23;95554.66;7401824;19;1024;-73
2024/02/13 11:23:53;;;;;;;;;;;;;;;9.57;79.90;95545.59;7402033;19;1049;-70
2024/02/13 11:26:21;;;;;;;;;;;;;;;9.52;79.46;95544.16;7402023;19;1790;-71
2024/02/13 11:28:53;;;;;;;;;;;;;;;9.41;78.70;95544.66;7401583;19;1045;-71
2024/02/13 11:31:26;;;;;;;;;;;;;;;9.32;79.06;95541.59;7402014;19;1039;-69
2024/02/13 11:34:13;;;;;;;;;;;;;;;9.28;79.38;95542.69;7400429;19;1819;-67
2024/02/13 11:36:42;;;;;;;;;;;;;;;9.26;79.18;95536.69;7401338;19;1052;-63
2024/02/13 11:39:11;;;;;;;;;;;;;;;9.23;81.51;95539.44;7399470;19;1104;-69
2024/02/13 11:41:39;;;;;;;;;;;;;;;9.20;82.01;95534.38;7401654;19;952;-70
2024/02/13 11:44:09;;;;;;;;;;;;;;;9.22;83.94;95528.13;7401428;19;957;-69
2024/02/13 11:46:37;;;;;;;;;;;;;;;9.20;84.78;95532.59;7401275;19;1862;-70
2024/02/13 11:49:11;;;;;;;;;;;;;;;9.19;85.69;95532.69;7401195;19;1915;-69
2024/02/13 11:51:40;;;;;;;;;;;;;;;9.22;86.52;95524.72;7400834;19;1151;-70
2024/02/13 11:54:09;;;;;;;;;;;;;;;9.22;87.45;95532.53;7399031;19;1841;-77
2024/02/13 11:56:37;;;;;;;;;;;;;;;9.11;86.53;95520.00;7401082;19;950;-67
2024/02/13 11:59:06;;;;;;;;;;;;;;;9.04;85.65;95521.22;7401195;19;1008;-66
2024/02/13 12:01:37;;;;;;;;;;;;;;;8.97;86.35;95521.50;7400412;19;1053;-71
2024/02/13 12:04:07;;;;;;;;;;;;;;;9.09;86.88;95519.22;7400775;19;973;-70
2024/02/13 12:06:38;;;;;;;;;;;;;;;9.09;85.34;95520.06;7400224;19;1845;-70
2024/02/13 12:09:07;;;;;;;;;;;;;;;9.09;85.21;95521.81;7399390;19;1045;-69
2024/02/13 12:11:37;;;;;;;;;;;;;;;9.07;87.38;95521.06;7400569;19;965;-63
2024/02/13 12:14:05;;;;;;;;;;;;;;;9.10;87.88;95515.72;7398654;19;1842;-66
2024/02/13 12:16:38;;;;;;;;;;;;;;;9.18;86.28;95520.56;7400414;19;1018;-69
2024/02/13 12:19:08;;;;;;;;;;;;;;;9.20;85.67;95511.75;7400302;19;976;-71
2024/02/13 12:21:39;;;;;;;;;;;;;;;9.26;85.40;95509.72;7400266;19;972;-76
2024/02/13 12:24:08;;;;;;;;;;;;;;;9.28;85.58;95513.97;7399612;19;1174;-71
2024/02/13 12:26:37;;;;;;;;;;;;;;;9.23;84.65;95508.97;7399625;19;1064;-68
2024/02/13 12:29:14;;;;;;;;;;;;;;;9.15;85.73;95518.09;7399227;19;1025;-65
2024/02/13 12:31:44;;;;;;;;;;;;;;;9.15;87.25;95520.72;7399309;19;1264;-68
2024/02/13 12:34:12;;;;;;;;;;;;;;;9.25;89.22;95515.88;7398048;19;1865;-72
2024/02/13 12:36:44;;;;;;;;;;;;;;;9.22;86.80;95507.25;7399326;19;1035;-74
2024/02/13 12:39:16;;;;;;;;;;;;;;;9.32;89.00;95509.44;7397758;19;1124;-71
2024/02/13 12:41:45;;;;;;;;;;;;;;;9.37;88.79;95507.44;7399091;19;1116;-68
2024/02/13 12:44:13;;;;;;;;;;;;;;;9.46;89.73;95500.94;7398966;19;1140;-73
2024/02/13 12:46:42;;;;;;;;;;;;;;;9.48;87.05;95502.53;7398943;19;1140;-73
2024/02/13 12:49:11;;;;;;;;;;;;;;;9.55;84.95;95505.69;7398857;19;1080;-71
2024/02/13 12:51:41;;;;;;;;;;;;;;;9.66;85.67;95504.31;7398734;19;1073;-70
2024/02/13 12:54:12;;;;;;;;;;;;;;;9.72;85.61;95498.75;7397655;19;1846;-71
2024/02/13 12:56:41;;;;;;;;;;;;;;;9.77;83.79;95495.91;7398596;19;1104;-69
2024/02/13 12:59:12;;;;;;;;;;;;;;;9.79;83.03;95502.75;7398936;19;957;-68
2024/02/13 13:01:44;;;;;;;;;;;;;;;9.85;82.71;95506.81;7398458;19;1048;-74
2024/02/13 13:04:13;;;;;;;;;;;;;;;9.91;84.14;95500.41;7398345;19;1046;-70
2024/02/13 13:06:44;;;;;;;;;;;;;;;9.90;84.49;95506.56;7398334;19;1103;-65
2024/02/13 13:09:15;;;;;;;;;;;;;;;9.91;84.80;95508.25;7398235;19;1831;-67
2024/02/13 13:11:44;;;;;;;;;;;;;;;9.90;85.90;95510.00;7398713;19;958;-68
2024/02/13 13:14:12;;;;;;;;;;;;;;;9.78;86.26;95508.06;7397408;19;1903;-72
2024/02/13 13:16:41;;;;;;;;;;;;;;;9.57;86.62;95509.06;7398255;19;2149;-71
2024/02/13 13:19:10;;;;;;;;;;;;;;;9.44;86.99;95526.25;7397925;19;1036;-68
2024/02/13 13:21:39;;;;;;;;;;;;;;;9.40;88.42;95525.56;7396531;19;1035;-70
2024/02/13 13:24:08;;;;;;;;;;;;;;;9.39;88.69;95530.88;7397617;19;1165;-69